sensor_id;sensor_type;location;lat;lon;timestamp;pressure;altitude;pressure_sealevel;temperature;humidity
22662;BME280;11497;52.222;21.246;2023-05-09T00:01:48;101739.25;;;2.38;96.74
22662;BME280;11497;52.222;21.246;2023-05-09T00:04:16;101734.84;;;2.33;96.68
22662;BME280;11497;52.222;21.246;2023-05-09T00:06:44;101737.47;;;2.35;96.90
22662;BME280;11497;52.222;21.246;2023-05-09T00:09:12;101744.66;;;2.48;97.02
22662;BME280;11497;52.222;21.246;2023-05-09T00:11:40;101733.88;;;2.28;97.03
22662;BME280;11497;52.222;21.246;2023-05-09T00:14:09;101735.63;;;2.29;97.03
22662;BME280;11497;52.222;21.246;2023-05-09T00:16:39;101731.44;;;2.34;97.11
22662;BME280;11497;52.222;21.246;2023-05-09T00:19:07;101727.63;;;2.19;97.25
22662;BME280;11497;52.222;21.246;2023-05-09T00:21:35;101730.59;;;2.36;97.39
22662;BME280;11497;52.222;21.246;2023-05-09T00:24:03;101731.94;;;2.18;97.25
22662;BME280;11497;52.222;21.246;2023-05-09T00:26:31;101737.16;;;2.21;97.50
22662;BME280;11497;52.222;21.246;2023-05-09T00:28:58;101723.31;;;2.16;97.53
22662;BME280;11497;52.222;21.246;2023-05-09T00:31:26;101728.19;;;2.04;97.63
22662;BME280;11497;52.222;21.246;2023-05-09T00:33:54;101729.94;;;2.05;97.71
22662;BME280;11497;52.222;21.246;2023-05-09T00:36:22;101729.59;;;1.91;97.92
22662;BME280;11497;52.222;21.246;2023-05-09T00:38:50;101729.56;;;1.90;98.11
22662;BME280;11497;52.222;21.246;2023-05-09T00:41:18;101727.25;;;2.00;98.40
22662;BME280;11497;52.222;21.246;2023-05-09T00:43:46;101715.09;;;1.96;98.24
22662;BME280;11497;52.222;21.246;2023-05-09T00:46:14;101721.13;;;1.97;98.47
22662;BME280;11497;52.222;21.246;2023-05-09T00:48:42;101726.94;;;1.88;98.20
22662;BME280;11497;52.222;21.246;2023-05-09T00:51:10;101732.91;;;1.86;98.28
22662;BME280;11497;52.222;21.246;2023-05-09T00:53:38;101721.66;;;1.84;98.16
22662;BME280;11497;52.222;21.246;2023-05-09T00:56:08;101727.72;;;1.84;98.35
22662;BME280;11497;52.222;21.246;2023-05-09T00:58:37;101715.13;;;1.98;98.47
22662;BME280;11497;52.222;21.246;2023-05-09T01:01:05;101719.03;;;2.20;98.33
22662;BME280;11497;52.222;21.246;2023-05-09T01:03:33;101719.66;;;2.08;97.75
22662;BME280;11497;52.222;21.246;2023-05-09T01:09:13;101720.63;;;1.76;97.77
22662;BME280;11497;52.222;21.246;2023-05-09T01:17:26;101716.28;;;1.75;98.11
22662;BME280;11497;52.222;21.246;2023-05-09T01:20:02;101722.50;;;1.83;98.17
22662;BME280;11497;52.222;21.246;2023-05-09T01:22:51;101719.50;;;1.64;98.09
22662;BME280;11497;52.222;21.246;2023-05-09T01:25:48;101718.25;;;1.49;98.27
22662;BME280;11497;52.222;21.246;2023-05-09T01:31:00;101724.97;;;1.42;98.38
22662;BME280;11497;52.222;21.246;2023-05-09T01:33:34;101722.22;;;1.36;98.76
22662;BME280;11497;52.222;21.246;2023-05-09T01:36:05;101719.66;;;1.36;98.76
22662;BME280;11497;52.222;21.246;2023-05-09T01:38:37;101721.34;;;1.36;98.98
22662;BME280;11497;52.222;21.246;2023-05-09T01:41:06;101716.06;;;1.31;99.06
22662;BME280;11497;52.222;21.246;2023-05-09T01:43:37;101714.88;;;1.51;99.29
22662;BME280;11497;52.222;21.246;2023-05-09T01:46:06;101713.78;;;1.42;99.18
22662;BME280;11497;52.222;21.246;2023-05-09T01:48:36;101711.16;;;1.40;99.11
22662;BME280;11497;52.222;21.246;2023-05-09T01:51:04;101718.66;;;1.31;99.25
22662;BME280;11497;52.222;21.246;2023-05-09T01:53:34;101717.81;;;1.32;99.45
22662;BME280;11497;52.222;21.246;2023-05-09T01:56:04;101721.16;;;1.26;99.24
22662;BME280;11497;52.222;21.246;2023-05-09T01:58:33;101724.34;;;1.18;99.83
22662;BME280;11497;52.222;21.246;2023-05-09T02:01:04;101717.44;;;1.17;99.83
22662;BME280;11497;52.222;21.246;2023-05-09T02:03:33;101720.53;;;1.04;100.00
22662;BME280;11497;52.222;21.246;2023-05-09T02:06:04;101721.78;;;1.18;100.00
22662;BME280;11497;52.222;21.246;2023-05-09T02:08:33;101717.03;;;1.02;100.00
22662;BME280;11497;52.222;21.246;2023-05-09T02:11:01;101719.75;;;1.06;100.00
22662;BME280;11497;52.222;21.246;2023-05-09T02:13:29;101720.63;;;1.07;100.00
22662;BME280;11497;52.222;21.246;2023-05-09T02:15:57;101718.69;;;0.99;100.00
22662;BME280;11497;52.222;21.246;2023-05-09T02:18:25;101716.66;;;0.86;100.00
22662;BME280;11497;52.222;21.246;2023-05-09T02:20:53;101708.63;;;1.09;100.00
22662;BME280;11497;52.222;21.246;2023-05-09T02:23:21;101712.03;;;1.08;100.00
22662;BME280;11497;52.222;21.246;2023-05-09T02:25:50;101720.56;;;1.05;100.00
22662;BME280;11497;52.222;21.246;2023-05-09T02:28:19;101713.97;;;1.15;100.00
22662;BME280;11497;52.222;21.246;2023-05-09T02:30:50;101716.09;;;0.98;100.00
22662;BME280;11497;52.222;21.246;2023-05-09T02:33:18;101723.69;;;0.93;100.00
22662;BME280;11497;52.222;21.246;2023-05-09T02:35:47;101719.03;;;1.12;100.00
22662;BME280;11497;52.222;21.246;2023-05-09T02:38:15;101715.22;;;0.97;100.00
22662;BME280;11497;52.222;21.246;2023-05-09T02:40:46;101719.09;;;0.82;100.00
22662;BME280;11497;52.222;21.246;2023-05-09T02:43:18;101720.53;;;1.04;100.00
22662;BME280;11497;52.222;21.246;2023-05-09T02:45:45;101717.53;;;1.20;100.00
22662;BME280;11497;52.222;21.246;2023-05-09T02:48:13;101721.78;;;1.18;100.00
22662;BME280;11497;52.222;21.246;2023-05-09T02:50:41;101710.47;;;1.13;100.00
22662;BME280;11497;52.222;21.246;2023-05-09T02:53:10;101721.28;;;0.99;100.00
22662;BME280;11497;52.222;21.246;2023-05-09T02:55:40;101718.94;;;1.09;100.00
22662;BME280;11497;52.222;21.246;2023-05-09T02:58:08;101717.13;;;1.05;100.00
22662;BME280;11497;52.222;21.246;2023-05-09T03:00:42;101717.19;;;1.08;100.00
22662;BME280;11497;52.222;21.246;2023-05-09T03:03:12;101716.00;;;1.26;100.00
22662;BME280;11497;52.222;21.246;2023-05-09T03:05:40;101722.81;;;1.24;100.00
22662;BME280;11497;52.222;21.246;2023-05-09T03:08:08;101722.94;;;1.29;100.00
22662;BME280;11497;52.222;21.246;2023-05-09T03:10:36;101729.75;;;1.27;100.00
22662;BME280;11497;52.222;21.246;2023-05-09T03:13:04;101723.06;;;1.35;99.93
22662;BME280;11497;52.222;21.246;2023-05-09T03:15:32;101725.50;;;1.29;99.69
22662;BME280;11497;52.222;21.246;2023-05-09T03:18:00;101731.53;;;1.29;99.83
22662;BME280;11497;52.222;21.246;2023-05-09T03:20:28;101730.13;;;1.42;100.00
22662;BME280;11497;52.222;21.246;2023-05-09T03:22:57;101724.09;;;1.42;100.00
22662;BME280;11497;52.222;21.246;2023-05-09T03:25:25;101724.00;;;1.72;99.99
22662;BME280;11497;52.222;21.246;2023-05-09T03:27:53;101725.72;;;1.73;99.60
22662;BME280;11497;52.222;21.246;2023-05-09T03:30:21;101719.69;;;1.74;99.60
22662;BME280;11497;52.222;21.246;2023-05-09T03:32:49;101718.88;;;2.11;99.42
22662;BME280;11497;52.222;21.246;2023-05-09T03:35:17;101728.91;;;2.38;98.53
22662;BME280;11497;52.222;21.246;2023-05-09T03:37:46;101716.63;;;2.27;97.80
22662;BME280;11497;52.222;21.246;2023-05-09T03:40:14;101725.22;;;2.26;97.57
22662;BME280;11497;52.222;21.246;2023-05-09T03:42:49;101722.13;;;2.43;97.46
22662;BME280;11497;52.222;21.246;2023-05-09T03:45:17;101727.31;;;2.86;96.60
22662;BME280;11497;52.222;21.246;2023-05-09T03:47:46;101725.56;;;2.84;95.01
22662;BME280;11497;52.222;21.246;2023-05-09T03:50:14;101729.75;;;2.79;94.69
22662;BME280;11497;52.222;21.246;2023-05-09T03:52:43;101732.41;;;2.82;94.63
22662;BME280;11497;52.222;21.246;2023-05-09T03:55:14;101726.44;;;2.84;94.58
22662;BME280;11497;52.222;21.246;2023-05-09T03:57:43;101724.97;;;2.98;94.73
22662;BME280;11497;52.222;21.246;2023-05-09T04:00:11;101722.00;;;3.24;94.45
22662;BME280;11497;52.222;21.246;2023-05-09T04:02:50;101724.06;;;3.43;93.08
22662;BME280;11497;52.222;21.246;2023-05-09T04:05:30;101727.63;;;3.51;92.15
22662;BME280;11497;52.222;21.246;2023-05-09T04:08:01;101725.41;;;3.73;92.14
22662;BME280;11497;52.222;21.246;2023-05-09T04:10:31;101720.59;;;6.83;89.26
22662;BME280;11497;52.222;21.246;2023-05-09T04:12:59;101718.88;;;6.85;83.48
22662;BME280;11497;52.222;21.246;2023-05-09T04:15:27;101717.84;;;6.45;79.29
22662;BME280;11497;52.222;21.246;2023-05-09T04:17:57;101717.22;;;7.85;77.04
22662;BME280;11497;52.222;21.246;2023-05-09T04:20:25;101720.63;;;8.36;72.96
22662;BME280;11497;52.222;21.246;2023-05-09T04:22:54;101719.84;;;7.79;71.92
22662;BME280;11497;52.222;21.246;2023-05-09T04:25:21;101716.53;;;9.51;69.13
22662;BME280;11497;52.222;21.246;2023-05-09T04:27:50;101721.94;;;11.53;63.49
22662;BME280;11497;52.222;21.246;2023-05-09T04:30:18;101715.19;;;13.57;58.03
22662;BME280;11497;52.222;21.246;2023-05-09T04:32:47;101720.72;;;15.06;52.85
22662;BME280;11497;52.222;21.246;2023-05-09T04:35:15;101720.25;;;15.76;48.07
22662;BME280;11497;52.222;21.246;2023-05-09T04:37:50;101724.38;;;16.57;45.49
22662;BME280;11497;52.222;21.246;2023-05-09T04:40:18;101727.34;;;16.00;43.84
22662;BME280;11497;52.222;21.246;2023-05-09T04:42:55;101728.69;;;17.07;42.94
22662;BME280;11497;52.222;21.246;2023-05-09T04:45:29;101721.63;;;16.12;41.10
22662;BME280;11497;52.222;21.246;2023-05-09T04:48:00;101730.50;;;14.73;41.96
22662;BME280;11497;52.222;21.246;2023-05-09T04:50:28;101726.16;;;14.72;41.97
22662;BME280;11497;52.222;21.246;2023-05-09T04:52:56;101721.78;;;16.08;40.93
22662;BME280;11497;52.222;21.246;2023-05-09T04:55:24;101728.84;;;14.06;41.26
22662;BME280;11497;52.222;21.246;2023-05-09T04:57:53;101727.59;;;14.82;41.53
22662;BME280;11497;52.222;21.246;2023-05-09T05:00:21;101719.81;;;14.16;42.46
22662;BME280;11497;52.222;21.246;2023-05-09T05:02:49;101727.09;;;13.37;42.46
22662;BME280;11497;52.222;21.246;2023-05-09T05:05:17;101725.03;;;13.85;43.47
22662;BME280;11497;52.222;21.246;2023-05-09T05:07:52;101719.25;;;17.87;39.45
22662;BME280;11497;52.222;21.246;2023-05-09T05:10:25;101724.03;;;17.57;36.77
22662;BME280;11497;52.222;21.246;2023-05-09T05:13:01;101724.22;;;17.52;37.23
22662;BME280;11497;52.222;21.246;2023-05-09T05:15:29;101724.47;;;16.79;36.33
22662;BME280;11497;52.222;21.246;2023-05-09T05:17:58;101727.34;;;16.00;37.03
22662;BME280;11497;52.222;21.246;2023-05-09T05:20:32;101727.47;;;15.97;37.81
22662;BME280;11497;52.222;21.246;2023-05-09T05:23:01;101731.06;;;16.19;37.74
22662;BME280;11497;52.222;21.246;2023-05-09T05:25:29;101731.44;;;16.09;36.90
22662;BME280;11497;52.222;21.246;2023-05-09T05:27:59;101722.94;;;17.19;36.08
22662;BME280;11497;52.222;21.246;2023-05-09T05:30:27;101728.88;;;17.46;35.44
22662;BME280;11497;52.222;21.246;2023-05-09T05:32:56;101729.75;;;18.49;33.98
22662;BME280;11497;52.222;21.246;2023-05-09T05:35:25;101730.16;;;18.20;33.13
22662;BME280;11497;52.222;21.246;2023-05-09T05:37:55;101725.88;;;16.89;34.43
22662;BME280;11497;52.222;21.246;2023-05-09T05:40:24;101725.63;;;16.72;34.74
22662;BME280;11497;52.222;21.246;2023-05-09T05:42:54;101726.78;;;15.10;35.36
22662;BME280;11497;52.222;21.246;2023-05-09T05:45:22;101718.63;;;14.27;37.35
22662;BME280;11497;52.222;21.246;2023-05-09T05:47:54;101722.25;;;14.23;37.62
22662;BME280;11497;52.222;21.246;2023-05-09T05:50:23;101711.09;;;13.81;38.09
22662;BME280;11497;52.222;21.246;2023-05-09T05:52:53;101707.00;;;13.70;38.66
22662;BME280;11497;52.222;21.246;2023-05-09T05:55:20;101711.41;;;14.02;38.89
22662;BME280;11497;52.222;21.246;2023-05-09T05:57:49;101709.97;;;15.40;38.34
22662;BME280;11497;52.222;21.246;2023-05-09T06:00:17;101712.13;;;16.55;37.23
22662;BME280;11497;52.222;21.246;2023-05-09T06:02:50;101707.53;;;17.50;35.87
22662;BME280;11497;52.222;21.246;2023-05-09T06:05:24;101703.75;;;19.86;33.23
22662;BME280;11497;52.222;21.246;2023-05-09T06:07:52;101705.97;;;20.11;32.42
22662;BME280;11497;52.222;21.246;2023-05-09T06:10:20;101713.94;;;20.61;29.91
22662;BME280;11497;52.222;21.246;2023-05-09T06:12:48;101711.84;;;19.66;29.89
22662;BME280;11497;52.222;21.246;2023-05-09T06:15:17;101715.13;;;18.99;31.38
22662;BME280;11497;52.222;21.246;2023-05-09T06:17:48;101710.91;;;18.55;31.10
22662;BME280;11497;52.222;21.246;2023-05-09T06:20:16;101713.41;;;18.98;30.83
22662;BME280;11497;52.222;21.246;2023-05-09T06:22:44;101704.03;;;19.08;30.18
22662;BME280;11497;52.222;21.246;2023-05-09T06:25:12;101705.78;;;18.71;30.17
22662;BME280;11497;52.222;21.246;2023-05-09T06:27:40;101711.66;;;18.59;30.57
22662;BME280;11497;52.222;21.246;2023-05-09T06:30:08;101703.50;;;17.84;29.34
22662;BME280;11497;52.222;21.246;2023-05-09T06:32:39;101705.75;;;17.93;29.13
22662;BME280;11497;52.222;21.246;2023-05-09T06:35:07;101705.66;;;18.74;28.96
22662;BME280;11497;52.222;21.246;2023-05-09T06:37:35;101711.13;;;19.62;29.03
22662;BME280;11497;52.222;21.246;2023-05-09T06:40:03;101712.50;;;19.88;27.78
22662;BME280;11497;52.222;21.246;2023-05-09T06:42:31;101707.94;;;20.07;27.06
22662;BME280;11497;52.222;21.246;2023-05-09T06:45:00;101712.03;;;20.47;25.95
22662;BME280;11497;52.222;21.246;2023-05-09T06:47:28;101716.13;;;20.70;25.71
22662;BME280;11497;52.222;21.246;2023-05-09T06:49:56;101718.38;;;21.71;24.77
22662;BME280;11497;52.222;21.246;2023-05-09T06:52:24;101718.34;;;22.87;23.80
22662;BME280;11497;52.222;21.246;2023-05-09T06:54:51;101706.56;;;24.10;22.87
22662;BME280;11497;52.222;21.246;2023-05-09T06:57:21;101719.00;;;24.11;21.87
22662;BME280;11497;52.222;21.246;2023-05-09T06:59:49;101694.81;;;24.13;21.07
22662;BME280;11497;52.222;21.246;2023-05-09T07:02:17;101709.09;;;24.75;20.90
22662;BME280;11497;52.222;21.246;2023-05-09T07:04:45;101714.66;;;24.98;20.19
22662;BME280;11497;52.222;21.246;2023-05-09T07:07:13;101698.28;;;25.61;19.72
22662;BME280;11497;52.222;21.246;2023-05-09T07:09:41;101706.63;;;26.27;19.07
22662;BME280;11497;52.222;21.246;2023-05-09T07:12:08;101711.41;;;26.45;18.13
22662;BME280;11497;52.222;21.246;2023-05-09T07:14:36;101701.66;;;26.67;17.71
22662;BME280;11497;52.222;21.246;2023-05-09T07:17:04;101706.53;;;28.12;16.83
22662;BME280;11497;52.222;21.246;2023-05-09T07:19:50;101705.50;;;28.03;16.07
22662;BME280;11497;52.222;21.246;2023-05-09T07:22:18;101702.81;;;27.62;15.71
22662;BME280;11497;52.222;21.246;2023-05-09T07:24:46;101693.59;;;28.27;15.46
22662;BME280;11497;52.222;21.246;2023-05-09T07:27:14;101691.09;;;29.73;15.33
22662;BME280;11497;52.222;21.246;2023-05-09T07:29:41;101688.66;;;30.36;14.38
22662;BME280;11497;52.222;21.246;2023-05-09T07:32:09;101688.59;;;30.55;14.44
22662;BME280;11497;52.222;21.246;2023-05-09T07:34:37;101691.56;;;30.71;13.94
22662;BME280;11497;52.222;21.246;2023-05-09T07:37:05;101678.16;;;28.69;14.03
22662;BME280;11497;52.222;21.246;2023-05-09T07:39:33;101682.84;;;29.26;13.82
22662;BME280;11497;52.222;21.246;2023-05-09T07:42:01;101679.56;;;30.37;13.52
22662;BME280;11497;52.222;21.246;2023-05-09T07:44:28;101674.06;;;31.11;13.03
22662;BME280;11497;52.222;21.246;2023-05-09T07:46:56;101678.88;;;29.78;12.70
22662;BME280;11497;52.222;21.246;2023-05-09T07:49:25;101675.19;;;29.70;12.99
22662;BME280;11497;52.222;21.246;2023-05-09T07:51:53;101669.28;;;30.23;12.98
22662;BME280;11497;52.222;21.246;2023-05-09T07:54:21;101665.50;;;29.09;13.39
22662;BME280;11497;52.222;21.246;2023-05-09T07:56:49;101679.47;;;29.34;13.03
22662;BME280;11497;52.222;21.246;2023-05-09T07:59:17;101683.84;;;29.25;13.08
22662;BME280;11497;52.222;21.246;2023-05-09T08:01:45;101674.72;;;30.40;13.18
22662;BME280;11497;52.222;21.246;2023-05-09T08:04:13;101667.72;;;30.57;12.16
22662;BME280;11497;52.222;21.246;2023-05-09T08:06:41;101669.69;;;31.46;12.22
22662;BME280;11497;52.222;21.246;2023-05-09T08:09:08;101664.66;;;31.51;11.71
22662;BME280;11497;52.222;21.246;2023-05-09T08:11:37;101661.69;;;30.91;12.00
22662;BME280;11497;52.222;21.246;2023-05-09T08:14:04;101655.56;;;30.71;11.95
22662;BME280;11497;52.222;21.246;2023-05-09T08:16:32;101662.72;;;31.07;12.26
22662;BME280;11497;52.222;21.246;2023-05-09T08:19:00;101668.84;;;30.27;11.74
22662;BME280;11497;52.222;21.246;2023-05-09T08:21:28;101661.84;;;29.59;12.26
22662;BME280;11497;52.222;21.246;2023-05-09T08:23:56;101649.06;;;29.51;12.80
22662;BME280;11497;52.222;21.246;2023-05-09T08:26:24;101658.25;;;31.16;12.59
22662;BME280;11497;52.222;21.246;2023-05-09T08:28:53;101647.16;;;30.92;11.95
22662;BME280;11497;52.222;21.246;2023-05-09T08:31:21;101638.53;;;31.06;12.15
22662;BME280;11497;52.222;21.246;2023-05-09T08:33:49;101639.03;;;31.19;12.29
22662;BME280;11497;52.222;21.246;2023-05-09T08:36:17;101634.94;;;30.33;12.38
22662;BME280;11497;52.222;21.246;2023-05-09T08:38:45;101633.88;;;29.21;12.76
22662;BME280;11497;52.222;21.246;2023-05-09T08:41:13;101633.84;;;27.81;13.07
22662;BME280;11497;52.222;21.246;2023-05-09T08:43:41;101625.13;;;28.69;13.54
22662;BME280;11497;52.222;21.246;2023-05-09T08:46:09;101629.75;;;29.75;12.91
22662;BME280;11497;52.222;21.246;2023-05-09T08:48:38;101636.88;;;29.37;12.39
22662;BME280;11497;52.222;21.246;2023-05-09T08:51:07;101626.09;;;28.99;12.06
22662;BME280;11497;52.222;21.246;2023-05-09T08:53:35;101628.38;;;28.63;12.54
22662;BME280;11497;52.222;21.246;2023-05-09T08:56:03;101627.88;;;27.78;12.70
22662;BME280;11497;52.222;21.246;2023-05-09T08:58:31;101624.31;;;27.98;13.31
22662;BME280;11497;52.222;21.246;2023-05-09T09:01:01;101618.94;;;27.98;12.84
22662;BME280;11497;52.222;21.246;2023-05-09T09:03:31;101621.63;;;27.04;13.06
22662;BME280;11497;52.222;21.246;2023-05-09T09:05:59;101615.34;;;26.71;13.39
22662;BME280;11497;52.222;21.246;2023-05-09T09:08:28;101611.38;;;27.50;13.28
22662;BME280;11497;52.222;21.246;2023-05-09T09:10:56;101609.59;;;27.19;13.01
22662;BME280;11497;52.222;21.246;2023-05-09T09:13:25;101598.59;;;28.15;13.58
22662;BME280;11497;52.222;21.246;2023-05-09T09:15:54;101599.53;;;28.35;13.38
22662;BME280;11497;52.222;21.246;2023-05-09T09:18:29;101603.56;;;27.89;13.50
22662;BME280;11497;52.222;21.246;2023-05-09T09:21:00;101593.59;;;27.80;13.87
22662;BME280;11497;52.222;21.246;2023-05-09T09:23:31;101592.88;;;27.15;13.85
22662;BME280;11497;52.222;21.246;2023-05-09T09:26:01;101601.41;;;27.21;13.66
22662;BME280;11497;52.222;21.246;2023-05-09T09:28:32;101611.13;;;27.01;13.96
22662;BME280;11497;52.222;21.246;2023-05-09T09:31:00;101602.28;;;26.78;14.03
22662;BME280;11497;52.222;21.246;2023-05-09T09:33:28;101601.94;;;27.35;13.81
22662;BME280;11497;52.222;21.246;2023-05-09T09:35:56;101597.09;;;27.29;13.91
22662;BME280;11497;52.222;21.246;2023-05-09T09:38:25;101605.25;;;27.07;13.62
22662;BME280;11497;52.222;21.246;2023-05-09T09:40:55;101590.03;;;26.31;13.76
22662;BME280;11497;52.222;21.246;2023-05-09T09:43:30;101576.09;;;26.48;14.32
22662;BME280;11497;52.222;21.246;2023-05-09T09:46:05;101577.81;;;26.04;14.23
22662;BME280;11497;52.222;21.246;2023-05-09T09:48:34;101577.19;;;26.01;15.01
22662;BME280;11497;52.222;21.246;2023-05-09T09:51:08;101586.13;;;26.35;15.07
22662;BME280;11497;52.222;21.246;2023-05-09T09:53:41;101591.59;;;26.00;14.63
22662;BME280;11497;52.222;21.246;2023-05-09T09:56:10;101579.38;;;25.73;14.89
22662;BME280;11497;52.222;21.246;2023-05-09T09:58:38;101574.91;;;25.96;14.90
22662;BME280;11497;52.222;21.246;2023-05-09T10:01:12;101581.47;;;26.03;15.13
22662;BME280;11497;52.222;21.246;2023-05-09T10:03:42;101577.63;;;25.15;15.01
22662;BME280;11497;52.222;21.246;2023-05-09T10:06:13;101583.03;;;25.26;15.61
22662;BME280;11497;52.222;21.246;2023-05-09T10:08:42;101566.25;;;25.00;15.55
22662;BME280;11497;52.222;21.246;2023-05-09T10:11:11;101569.00;;;24.51;15.51
22662;BME280;11497;52.222;21.246;2023-05-09T10:13:39;101575.94;;;24.04;16.62
22662;BME280;11497;52.222;21.246;2023-05-09T10:16:08;101568.78;;;22.19;17.00
22662;BME280;11497;52.222;21.246;2023-05-09T10:18:37;101562.97;;;21.26;18.22
22662;BME280;11497;52.222;21.246;2023-05-09T10:21:07;101550.34;;;20.05;18.75
22662;BME280;11497;52.222;21.246;2023-05-09T10:23:41;101558.66;;;19.49;19.82
22662;BME280;11497;52.222;21.246;2023-05-09T10:26:16;101554.16;;;18.80;20.50
22662;BME280;11497;52.222;21.246;2023-05-09T10:28:45;101553.56;;;18.56;21.20
22662;BME280;11497;52.222;21.246;2023-05-09T10:31:21;101549.16;;;18.19;21.12
22662;BME280;11497;52.222;21.246;2023-05-09T10:33:50;101546.78;;;18.13;21.46
22662;BME280;11497;52.222;21.246;2023-05-09T10:36:20;101537.22;;;17.90;21.17
22662;BME280;11497;52.222;21.246;2023-05-09T10:38:49;101539.19;;;17.67;21.72
22662;BME280;11497;52.222;21.246;2023-05-09T10:41:17;101550.94;;;17.39;21.76
22662;BME280;11497;52.222;21.246;2023-05-09T10:43:46;101542.34;;;17.34;22.12
22662;BME280;11497;52.222;21.246;2023-05-09T10:46:15;101532.19;;;17.25;22.59
22662;BME280;11497;52.222;21.246;2023-05-09T10:48:44;101531.63;;;17.37;22.88
22662;BME280;11497;52.222;21.246;2023-05-09T10:51:15;101529.66;;;17.42;23.37
22662;BME280;11497;52.222;21.246;2023-05-09T10:53:45;101515.75;;;17.37;23.60
22662;BME280;11497;52.222;21.246;2023-05-09T10:56:33;101525.84;;;17.29;23.88
22662;BME280;11497;52.222;21.246;2023-05-09T10:59:06;101528.00;;;17.19;23.84
22662;BME280;11497;52.222;21.246;2023-05-09T11:01:57;101518.16;;;17.23;23.82
22662;BME280;11497;52.222;21.246;2023-05-09T11:04:28;101520.13;;;17.18;23.93
22662;BME280;11497;52.222;21.246;2023-05-09T11:06:56;101516.44;;;17.22;23.37
22662;BME280;11497;52.222;21.246;2023-05-09T11:09:35;101518.69;;;17.31;23.23
22662;BME280;11497;52.222;21.246;2023-05-09T11:12:15;101512.59;;;17.29;23.98
22662;BME280;11497;52.222;21.246;2023-05-09T11:14:49;101507.34;;;17.48;23.69
22662;BME280;11497;52.222;21.246;2023-05-09T11:17:28;101509.25;;;17.65;24.20
22662;BME280;11497;52.222;21.246;2023-05-09T11:20:08;101502.38;;;17.60;23.40
22662;BME280;11497;52.222;21.246;2023-05-09T11:22:41;101491.41;;;17.70;23.63
22662;BME280;11497;52.222;21.246;2023-05-09T11:25:11;101489.69;;;17.48;24.25
22662;BME280;11497;52.222;21.246;2023-05-09T11:27:45;101477.47;;;17.65;24.60
22662;BME280;11497;52.222;21.246;2023-05-09T11:30:16;101481.59;;;17.51;24.27
22662;BME280;11497;52.222;21.246;2023-05-09T11:32:54;101486.91;;;17.51;24.23
22662;BME280;11497;52.222;21.246;2023-05-09T11:35:23;101476.19;;;17.34;24.13
22662;BME280;11497;52.222;21.246;2023-05-09T11:38:05;101472.06;;;17.28;24.21
22662;BME280;11497;52.222;21.246;2023-05-09T11:40:34;101466.84;;;17.46;24.18
22662;BME280;11497;52.222;21.246;2023-05-09T11:43:02;101461.50;;;17.47;24.03
22662;BME280;11497;52.222;21.246;2023-05-09T11:45:31;101455.66;;;17.59;23.55
22662;BME280;11497;52.222;21.246;2023-05-09T11:48:00;101452.59;;;17.87;24.29
22662;BME280;11497;52.222;21.246;2023-05-09T11:50:28;101448.03;;;17.91;24.53
22662;BME280;11497;52.222;21.246;2023-05-09T11:52:56;101437.50;;;18.08;24.77
22662;BME280;11497;52.222;21.246;2023-05-09T11:55:25;101436.13;;;18.18;25.08
22662;BME280;11497;52.222;21.246;2023-05-09T11:57:57;101434.00;;;18.08;24.47
22662;BME280;11497;52.222;21.246;2023-05-09T12:00:25;101436.56;;;18.09;24.36
22662;BME280;11497;52.222;21.246;2023-05-09T12:02:53;101425.06;;;17.91;23.93
22662;BME280;11497;52.222;21.246;2023-05-09T12:05:22;101422.97;;;17.98;23.93
22662;BME280;11497;52.222;21.246;2023-05-09T12:07:50;101420.72;;;17.72;23.78
22662;BME280;11497;52.222;21.246;2023-05-09T12:10:20;101399.03;;;17.43;23.47
22662;BME280;11497;52.222;21.246;2023-05-09T12:12:51;101418.66;;;17.58;24.00
22662;BME280;11497;52.222;21.246;2023-05-09T12:15:19;101423.22;;;17.54;24.53
22662;BME280;11497;52.222;21.246;2023-05-09T12:18:03;101423.38;;;17.51;24.22
22662;BME280;11497;52.222;21.246;2023-05-09T12:20:47;101407.78;;;17.45;24.39
22662;BME280;11497;52.222;21.246;2023-05-09T12:23:15;101408.03;;;17.39;25.02
22662;BME280;11497;52.222;21.246;2023-05-09T12:25:53;101400.38;;;17.72;25.00
22662;BME280;11497;52.222;21.246;2023-05-09T12:28:25;101408.53;;;17.68;23.95
22662;BME280;11497;52.222;21.246;2023-05-09T12:30:54;101402.50;;;17.64;24.11
22662;BME280;11497;52.222;21.246;2023-05-09T12:33:22;101405.22;;;17.62;24.52
22662;BME280;11497;52.222;21.246;2023-05-09T12:36:01;101396.31;;;17.45;24.54
22662;BME280;11497;52.222;21.246;2023-05-09T12:38:30;101388.31;;;17.46;24.54
22662;BME280;11497;52.222;21.246;2023-05-09T12:41:07;101382.94;;;17.48;23.92
22662;BME280;11497;52.222;21.246;2023-05-09T12:43:47;101384.19;;;17.59;24.25
22662;BME280;11497;52.222;21.246;2023-05-09T12:46:21;101380.88;;;17.54;24.84
22662;BME280;11497;52.222;21.246;2023-05-09T12:48:50;101369.47;;;17.73;24.55
22662;BME280;11497;52.222;21.246;2023-05-09T12:51:20;101376.31;;;17.77;24.21
22662;BME280;11497;52.222;21.246;2023-05-09T12:53:48;101372.66;;;17.60;24.01
22662;BME280;11497;52.222;21.246;2023-05-09T12:56:20;101365.13;;;17.51;24.19
22662;BME280;11497;52.222;21.246;2023-05-09T12:58:54;101369.16;;;17.60;23.93
22662;BME280;11497;52.222;21.246;2023-05-09T13:01:27;101364.22;;;17.52;24.08
22662;BME280;11497;52.222;21.246;2023-05-09T13:04:03;101354.47;;;17.53;23.96
22662;BME280;11497;52.222;21.246;2023-05-09T13:06:33;101347.91;;;17.61;24.27
22662;BME280;11497;52.222;21.246;2023-05-09T13:09:04;101340.38;;;17.52;24.07